Catàleg de serveis del Meteocat
Campanya meteocatpedra

Dades de l'estació automàtica Alcanar

?
?
Resum diari 22:30 TU
Dades diàries de l'estació meteorològica
Temperatura mitjana 12.9 °C
Temperatura màxima 17.4 °C 14:37 TU
Temperatura mínima 9.3 °C 22:02 TU
Humitat relativa mitjana 68%
Precipitació acumulada 2.1 mm
Ratxa màxima del vent (2 m) 29.5 km/h - 326º 11:51 TU
Irradiació solar global 7.9 MJ/m2

El tram horari està expressat en Temps Universal (TU). Cal sumar una hora en horari d'hivern i dues en horari d'estiu per passar a l'hora oficial.

Alcanar

Metadades estació meteorol´gica
Municipi Alcanar
Comarca Montsià
Altitud 24 m
Data alta 06.05.1991
Estat actual Operativa
Dades de període
Període
TU
TM
°C
TX
°C
TN
°C
HRM
%
PPT
mm
VVM (2 m)
km/h
DVM (2 m)
graus
VVX (2 m)
km/h
RS
W/m2
00:00 - 00:30 12.2 13.0 11.5 62 0.0 1.8 309 3.2 0
00:30 - 01:00 11.4 11.6 11.3 65 0.0 2.2 319 4.7 0
01:00 - 01:30 11.5 12.6 11.1 65 0.0 2.9 328 6.1 0
01:30 - 02:00 13.3 13.4 12.8 56 0.0 4.0 301 11.2 0
02:00 - 02:30 13.0 13.4 12.8 58 0.0 2.9 306 7.2 0
02:30 - 03:00 13.3 13.4 13.1 54 0.0 3.6 316 6.8 0
03:00 - 03:30 13.4 13.7 13.2 52 0.0 3.2 315 9.7 0
03:30 - 04:00 13.4 13.7 13.3 52 0.0 2.5 320 5.0 0
04:00 - 04:30 13.2 13.3 13.0 55 0.0 2.5 330 5.0 0
04:30 - 05:00 12.9 13.0 12.6 58 0.0 1.8 309 4.7 0
05:00 - 05:30 12.1 12.5 11.5 72 0.0 3.2 326 5.8 0
05:30 - 06:00 11.2 11.5 11.0 87 0.3 3.6 337 6.8 0
06:00 - 06:30 11.1 11.2 11.0 92 0.2 0.7 340 4.7 0
06:30 - 07:00 11.0 11.1 10.8 94 0.3 1.4 280 5.0 0
07:00 - 07:30 10.9 11.0 10.8 97 0.2 0.4 329 3.2 7
07:30 - 08:00 11.1 11.2 11.0 98 0.3 0.7 326 3.2 21
08:00 - 08:30 11.5 11.6 11.3 97 0.0 1.8 325 4.7 55
08:30 - 09:00 11.9 12.2 11.7 95 0.2 0.4 22 2.9 60
09:00 - 09:30 12.3 12.5 12.2 91 0.2 0.7 43 5.0 96
09:30 - 10:00 12.3 12.4 12.2 91 0.3 1.8 27 10.8 67
10:00 - 10:30 13.0 13.5 12.4 87 0.1 2.9 14 10.1 216
10:30 - 11:00 13.6 14.3 12.9 77 0.0 8.3 354 20.2 286
11:00 - 11:30 13.2 13.4 12.9 76 0.0 7.9 340 18.4 148
11:30 - 12:00 13.9 14.8 13.2 71 0.0 14.0 332 29.5 365
12:00 - 12:30 15.3 15.8 14.8 64 0.0 14.0 326 29.2 562
12:30 - 13:00 16.2 16.5 15.7 60 0.0 7.9 352 19.4 559
13:00 - 13:30 16.5 16.7 16.3 58 0.0 8.3 340 18.0 520
13:30 - 14:00 17.0 17.3 16.8 54 0.0 9.4 344 21.6 432
14:00 - 14:30 17.2 17.3 17.0 52 0.0 8.6 360 20.9 369
14:30 - 15:00 17.3 17.4 17.1 50 0.0 8.6 334 22.7 296
15:00 - 15:30 16.9 17.1 16.7 48 0.0 9.4 330 21.2 214
15:30 - 16:00 16.4 16.7 16.0 48 0.0 8.6 330 22.0 128
16:00 - 16:30 15.8 16.1 15.0 50 0.0 4.0 251 14.4 48
16:30 - 17:00 14.9 15.2 14.7 51 0.0 4.3 293 11.5 6
17:00 - 17:30 14.7 15.0 14.5 50 0.0 7.2 318 23.8 0
17:30 - 18:00 14.8 15.2 14.1 47 0.0 8.6 310 23.8 0
18:00 - 18:30 13.7 14.1 12.6 52 0.0 4.7 311 10.4 0
18:30 - 19:00 11.1 12.4 10.2 66 0.0 3.6 331 7.2 0
19:00 - 19:30 9.8 10.3 9.5 73 0.0 2.9 331 6.8 0
19:30 - 20:00 9.9 10.0 9.8 72 0.0 4.7 325 8.3 0
20:00 - 20:30 10.1 10.5 9.9 72 0.0 3.6 314 7.2 0
20:30 - 21:00 10.1 10.4 9.8 73 0.0 4.3 328 8.3 0
21:00 - 21:30 10.2 10.5 9.7 73 0.0 3.2 324 6.1 0
21:30 - 22:00 9.5 9.6 9.4 77 0.0 4.0 327 7.6 0
22:00 - 22:30 10.1 11.3 9.3 71 0.0 3.2 279 7.9 0
22:30 - 23:00 11.2 12.3 10.4 66 0.0 4.3 294 13.7 0

Les dades en taronja només han passat un control de qualitat automàtic. Resta pendent la seva validació definitiva.